sensor_id;sensor_type;location;lat;lon;timestamp;P1;durP1;ratioP1;P2;durP2;ratioP2
48052;SDS011;33824;51.600;5.718;2023-06-22T00:01:59;6.32;;;2.75;;
48052;SDS011;33824;51.600;5.718;2023-06-22T00:04:25;4.30;;;2.92;;
48052;SDS011;33824;51.600;5.718;2023-06-22T00:06:51;8.48;;;2.60;;
48052;SDS011;33824;51.600;5.718;2023-06-22T00:09:16;3.92;;;2.60;;
48052;SDS011;33824;51.600;5.718;2023-06-22T00:11:41;6.45;;;2.67;;
48052;SDS011;33824;51.600;5.718;2023-06-22T00:14:07;4.32;;;2.40;;
48052;SDS011;33824;51.600;5.718;2023-06-22T00:16:33;4.72;;;2.78;;
48052;SDS011;33824;51.600;5.718;2023-06-22T00:18:59;3.85;;;2.55;;
48052;SDS011;33824;51.600;5.718;2023-06-22T00:21:29;3.67;;;2.45;;
48052;SDS011;33824;51.600;5.718;2023-06-22T00:23:55;3.60;;;2.50;;
48052;SDS011;33824;51.600;5.718;2023-06-22T00:26:20;4.70;;;2.72;;
48052;SDS011;33824;51.600;5.718;2023-06-22T00:28:46;4.25;;;2.70;;
48052;SDS011;33824;51.600;5.718;2023-06-22T00:31:12;5.28;;;3.47;;
48052;SDS011;33824;51.600;5.718;2023-06-22T00:33:38;5.30;;;3.10;;
48052;SDS011;33824;51.600;5.718;2023-06-22T00:36:04;4.75;;;3.00;;
48052;SDS011;33824;51.600;5.718;2023-06-22T00:38:31;9.02;;;3.95;;
48052;SDS011;33824;51.600;5.718;2023-06-22T00:40:57;6.13;;;3.70;;
48052;SDS011;33824;51.600;5.718;2023-06-22T00:43:23;5.00;;;3.25;;
48052;SDS011;33824;51.600;5.718;2023-06-22T00:45:48;5.72;;;3.35;;
48052;SDS011;33824;51.600;5.718;2023-06-22T00:48:17;3.53;;;2.70;;
48052;SDS011;33824;51.600;5.718;2023-06-22T00:50:42;7.35;;;3.97;;
48052;SDS011;33824;51.600;5.718;2023-06-22T00:53:08;5.35;;;3.72;;
48052;SDS011;33824;51.600;5.718;2023-06-22T00:55:35;6.22;;;3.67;;
48052;SDS011;33824;51.600;5.718;2023-06-22T00:58:07;6.55;;;4.00;;
48052;SDS011;33824;51.600;5.718;2023-06-22T01:00:35;5.53;;;3.73;;
48052;SDS011;33824;51.600;5.718;2023-06-22T01:03:02;7.32;;;3.85;;
48052;SDS011;33824;51.600;5.718;2023-06-22T01:05:28;5.95;;;4.05;;
48052;SDS011;33824;51.600;5.718;2023-06-22T01:08:04;7.30;;;3.92;;
48052;SDS011;33824;51.600;5.718;2023-06-22T01:10:48;7.30;;;3.83;;
48052;SDS011;33824;51.600;5.718;2023-06-22T01:13:29;9.73;;;3.78;;
48052;SDS011;33824;51.600;5.718;2023-06-22T01:16:07;6.43;;;4.18;;
48052;SDS011;33824;51.600;5.718;2023-06-22T01:18:40;11.00;;;4.13;;
48052;SDS011;33824;51.600;5.718;2023-06-22T01:21:07;7.70;;;4.25;;
48052;SDS011;33824;51.600;5.718;2023-06-22T01:26:24;7.95;;;4.28;;
48052;SDS011;33824;51.600;5.718;2023-06-22T01:28:57;5.97;;;3.92;;
48052;SDS011;33824;51.600;5.718;2023-06-22T01:31:26;7.15;;;4.63;;
48052;SDS011;33824;51.600;5.718;2023-06-22T01:33:59;13.38;;;4.45;;
48052;SDS011;33824;51.600;5.718;2023-06-22T01:36:27;10.10;;;4.50;;
48052;SDS011;33824;51.600;5.718;2023-06-22T01:38:54;8.98;;;4.22;;
48052;SDS011;33824;51.600;5.718;2023-06-22T01:41:23;6.75;;;4.50;;
48052;SDS011;33824;51.600;5.718;2023-06-22T01:43:51;6.65;;;3.78;;
48052;SDS011;33824;51.600;5.718;2023-06-22T01:46:18;8.15;;;4.35;;
48052;SDS011;33824;51.600;5.718;2023-06-22T01:48:45;8.63;;;4.85;;
48052;SDS011;33824;51.600;5.718;2023-06-22T01:51:11;6.25;;;4.15;;
48052;SDS011;33824;51.600;5.718;2023-06-22T01:53:37;7.40;;;4.00;;
48052;SDS011;33824;51.600;5.718;2023-06-22T01:56:03;7.30;;;5.05;;
48052;SDS011;33824;51.600;5.718;2023-06-22T01:58:29;8.07;;;5.28;;
48052;SDS011;33824;51.600;5.718;2023-06-22T02:00:59;5.95;;;3.70;;
48052;SDS011;33824;51.600;5.718;2023-06-22T02:03:31;8.63;;;4.78;;
48052;SDS011;33824;51.600;5.718;2023-06-22T02:06:03;8.63;;;5.03;;
48052;SDS011;33824;51.600;5.718;2023-06-22T02:08:35;6.05;;;4.15;;
48052;SDS011;33824;51.600;5.718;2023-06-22T02:11:05;6.10;;;4.20;;
48052;SDS011;33824;51.600;5.718;2023-06-22T02:13:33;10.93;;;5.05;;
48052;SDS011;33824;51.600;5.718;2023-06-22T02:15:59;11.13;;;4.85;;
48052;SDS011;33824;51.600;5.718;2023-06-22T02:18:26;6.70;;;4.47;;
48052;SDS011;33824;51.600;5.718;2023-06-22T02:20:51;6.25;;;4.43;;
48052;SDS011;33824;51.600;5.718;2023-06-22T02:23:17;8.73;;;4.80;;
48052;SDS011;33824;51.600;5.718;2023-06-22T02:25:43;6.47;;;4.35;;
48052;SDS011;33824;51.600;5.718;2023-06-22T02:28:09;8.57;;;3.95;;
48052;SDS011;33824;51.600;5.718;2023-06-22T02:30:35;10.40;;;4.78;;
48052;SDS011;33824;51.600;5.718;2023-06-22T02:33:01;9.43;;;4.75;;
48052;SDS011;33824;51.600;5.718;2023-06-22T02:35:27;8.73;;;4.55;;
48052;SDS011;33824;51.600;5.718;2023-06-22T02:37:59;10.45;;;5.95;;
48052;SDS011;33824;51.600;5.718;2023-06-22T02:40:26;7.07;;;4.35;;
48052;SDS011;33824;51.600;5.718;2023-06-22T02:42:52;8.98;;;4.38;;
48052;SDS011;33824;51.600;5.718;2023-06-22T02:45:17;8.30;;;4.68;;
48052;SDS011;33824;51.600;5.718;2023-06-22T02:47:44;10.25;;;5.05;;
48052;SDS011;33824;51.600;5.718;2023-06-22T02:50:09;7.50;;;5.07;;
48052;SDS011;33824;51.600;5.718;2023-06-22T02:52:35;9.32;;;4.93;;
48052;SDS011;33824;51.600;5.718;2023-06-22T02:55:01;7.90;;;4.35;;
48052;SDS011;33824;51.600;5.718;2023-06-22T02:57:27;6.75;;;4.13;;
48052;SDS011;33824;51.600;5.718;2023-06-22T02:59:52;7.65;;;4.88;;
48052;SDS011;33824;51.600;5.718;2023-06-22T03:02:18;7.80;;;4.47;;
48052;SDS011;33824;51.600;5.718;2023-06-22T03:04:46;6.80;;;4.35;;
48052;SDS011;33824;51.600;5.718;2023-06-22T03:07:14;6.72;;;4.20;;
48052;SDS011;33824;51.600;5.718;2023-06-22T03:09:42;7.50;;;4.32;;
48052;SDS011;33824;51.600;5.718;2023-06-22T03:12:08;9.23;;;4.30;;
48052;SDS011;33824;51.600;5.718;2023-06-22T03:14:34;8.43;;;4.95;;
48052;SDS011;33824;51.600;5.718;2023-06-22T03:17:00;8.02;;;4.78;;
48052;SDS011;33824;51.600;5.718;2023-06-22T03:19:28;8.25;;;4.75;;
48052;SDS011;33824;51.600;5.718;2023-06-22T03:21:57;8.68;;;4.85;;
48052;SDS011;33824;51.600;5.718;2023-06-22T03:24:24;10.43;;;4.95;;
48052;SDS011;33824;51.600;5.718;2023-06-22T03:26:49;10.98;;;5.60;;
48052;SDS011;33824;51.600;5.718;2023-06-22T03:29:15;9.57;;;5.35;;
48052;SDS011;33824;51.600;5.718;2023-06-22T03:31:41;8.25;;;5.53;;
48052;SDS011;33824;51.600;5.718;2023-06-22T03:34:06;9.27;;;5.78;;
48052;SDS011;33824;51.600;5.718;2023-06-22T03:36:32;8.57;;;5.18;;
48052;SDS011;33824;51.600;5.718;2023-06-22T03:38:57;10.63;;;5.28;;
48052;SDS011;33824;51.600;5.718;2023-06-22T03:41:23;7.63;;;5.50;;
48052;SDS011;33824;51.600;5.718;2023-06-22T03:43:48;9.35;;;5.57;;
48052;SDS011;33824;51.600;5.718;2023-06-22T03:46:14;10.50;;;5.80;;
48052;SDS011;33824;51.600;5.718;2023-06-22T03:48:40;9.85;;;5.90;;
48052;SDS011;33824;51.600;5.718;2023-06-22T03:51:05;10.15;;;5.07;;
48052;SDS011;33824;51.600;5.718;2023-06-22T03:53:31;8.57;;;5.10;;
48052;SDS011;33824;51.600;5.718;2023-06-22T03:55:57;9.18;;;5.00;;
48052;SDS011;33824;51.600;5.718;2023-06-22T03:58:22;10.57;;;5.70;;
48052;SDS011;33824;51.600;5.718;2023-06-22T04:00:48;8.27;;;4.70;;
48052;SDS011;33824;51.600;5.718;2023-06-22T04:03:15;6.97;;;4.50;;
48052;SDS011;33824;51.600;5.718;2023-06-22T04:05:41;7.95;;;4.70;;
48052;SDS011;33824;51.600;5.718;2023-06-22T04:08:07;7.95;;;5.32;;
48052;SDS011;33824;51.600;5.718;2023-06-22T04:10:33;7.25;;;4.88;;
48052;SDS011;33824;51.600;5.718;2023-06-22T04:12:59;9.15;;;4.63;;
48052;SDS011;33824;51.600;5.718;2023-06-22T04:15:25;7.30;;;4.55;;
48052;SDS011;33824;51.600;5.718;2023-06-22T04:17:51;7.00;;;4.32;;
48052;SDS011;33824;51.600;5.718;2023-06-22T04:20:17;7.57;;;4.38;;
48052;SDS011;33824;51.600;5.718;2023-06-22T04:22:42;8.45;;;5.07;;
48052;SDS011;33824;51.600;5.718;2023-06-22T04:25:08;9.38;;;5.05;;
48052;SDS011;33824;51.600;5.718;2023-06-22T04:27:33;6.40;;;4.43;;
48052;SDS011;33824;51.600;5.718;2023-06-22T04:30:06;8.45;;;5.60;;
48052;SDS011;33824;51.600;5.718;2023-06-22T04:32:33;9.40;;;4.88;;
48052;SDS011;33824;51.600;5.718;2023-06-22T04:35:02;7.90;;;4.93;;
48052;SDS011;33824;51.600;5.718;2023-06-22T04:37:31;9.40;;;5.20;;
48052;SDS011;33824;51.600;5.718;2023-06-22T04:39:57;8.70;;;5.22;;
48052;SDS011;33824;51.600;5.718;2023-06-22T04:42:22;7.47;;;4.97;;
48052;SDS011;33824;51.600;5.718;2023-06-22T04:44:48;6.55;;;4.65;;
48052;SDS011;33824;51.600;5.718;2023-06-22T04:47:13;8.02;;;4.68;;
48052;SDS011;33824;51.600;5.718;2023-06-22T04:49:39;9.63;;;5.07;;
48052;SDS011;33824;51.600;5.718;2023-06-22T04:52:08;8.60;;;5.10;;
48052;SDS011;33824;51.600;5.718;2023-06-22T04:54:36;10.85;;;5.57;;
48052;SDS011;33824;51.600;5.718;2023-06-22T04:57:02;8.60;;;4.63;;
48052;SDS011;33824;51.600;5.718;2023-06-22T04:59:30;7.45;;;4.50;;
48052;SDS011;33824;51.600;5.718;2023-06-22T05:02:00;9.60;;;5.30;;
48052;SDS011;33824;51.600;5.718;2023-06-22T05:04:27;9.15;;;5.38;;
48052;SDS011;33824;51.600;5.718;2023-06-22T05:06:56;10.90;;;5.07;;
48052;SDS011;33824;51.600;5.718;2023-06-22T05:09:22;8.05;;;5.13;;
48052;SDS011;33824;51.600;5.718;2023-06-22T05:11:50;8.45;;;5.68;;
48052;SDS011;33824;51.600;5.718;2023-06-22T05:14:16;10.38;;;5.20;;
48052;SDS011;33824;51.600;5.718;2023-06-22T05:16:42;9.27;;;5.72;;
48052;SDS011;33824;51.600;5.718;2023-06-22T05:19:08;9.18;;;5.60;;
48052;SDS011;33824;51.600;5.718;2023-06-22T05:21:34;8.95;;;5.78;;
48052;SDS011;33824;51.600;5.718;2023-06-22T05:24:00;12.23;;;5.80;;
48052;SDS011;33824;51.600;5.718;2023-06-22T05:26:31;8.70;;;5.55;;
48052;SDS011;33824;51.600;5.718;2023-06-22T05:28:58;8.52;;;5.55;;
48052;SDS011;33824;51.600;5.718;2023-06-22T05:31:25;10.85;;;5.72;;
48052;SDS011;33824;51.600;5.718;2023-06-22T05:33:52;12.32;;;6.43;;
48052;SDS011;33824;51.600;5.718;2023-06-22T05:36:19;10.80;;;7.13;;
48052;SDS011;33824;51.600;5.718;2023-06-22T05:38:51;16.98;;;6.68;;
48052;SDS011;33824;51.600;5.718;2023-06-22T05:41:17;14.13;;;7.10;;
48052;SDS011;33824;51.600;5.718;2023-06-22T05:43:43;10.15;;;6.07;;
48052;SDS011;33824;51.600;5.718;2023-06-22T05:46:08;16.77;;;6.32;;
48052;SDS011;33824;51.600;5.718;2023-06-22T05:48:34;12.90;;;6.88;;
48052;SDS011;33824;51.600;5.718;2023-06-22T05:50:59;10.23;;;6.57;;
48052;SDS011;33824;51.600;5.718;2023-06-22T05:53:25;13.15;;;6.65;;
48052;SDS011;33824;51.600;5.718;2023-06-22T05:55:53;11.18;;;6.50;;
48052;SDS011;33824;51.600;5.718;2023-06-22T05:58:19;9.63;;;6.10;;
48052;SDS011;33824;51.600;5.718;2023-06-22T06:00:45;12.02;;;6.68;;
48052;SDS011;33824;51.600;5.718;2023-06-22T06:03:11;10.95;;;6.65;;
48052;SDS011;33824;51.600;5.718;2023-06-22T06:05:37;13.23;;;7.32;;
48052;SDS011;33824;51.600;5.718;2023-06-22T06:08:03;13.88;;;7.53;;
48052;SDS011;33824;51.600;5.718;2023-06-22T06:10:30;13.32;;;7.80;;
48052;SDS011;33824;51.600;5.718;2023-06-22T06:12:57;14.43;;;7.20;;
48052;SDS011;33824;51.600;5.718;2023-06-22T06:15:23;12.82;;;6.97;;
48052;SDS011;33824;51.600;5.718;2023-06-22T06:17:49;13.77;;;7.68;;
48052;SDS011;33824;51.600;5.718;2023-06-22T06:20:19;12.82;;;7.10;;
48052;SDS011;33824;51.600;5.718;2023-06-22T06:22:46;16.52;;;7.18;;
48052;SDS011;33824;51.600;5.718;2023-06-22T06:25:12;10.45;;;7.03;;
48052;SDS011;33824;51.600;5.718;2023-06-22T06:27:42;12.63;;;7.22;;
48052;SDS011;33824;51.600;5.718;2023-06-22T06:30:08;14.35;;;7.63;;
48052;SDS011;33824;51.600;5.718;2023-06-22T06:32:36;10.45;;;7.07;;
48052;SDS011;33824;51.600;5.718;2023-06-22T06:35:01;11.15;;;6.72;;
48052;SDS011;33824;51.600;5.718;2023-06-22T06:37:27;11.70;;;7.55;;
48052;SDS011;33824;51.600;5.718;2023-06-22T06:39:53;11.43;;;7.28;;
48052;SDS011;33824;51.600;5.718;2023-06-22T06:42:18;15.68;;;8.30;;
48052;SDS011;33824;51.600;5.718;2023-06-22T06:44:45;11.75;;;7.20;;
48052;SDS011;33824;51.600;5.718;2023-06-22T06:47:10;13.48;;;8.38;;
48052;SDS011;33824;51.600;5.718;2023-06-22T06:49:36;16.30;;;8.15;;
48052;SDS011;33824;51.600;5.718;2023-06-22T06:52:02;12.68;;;7.88;;
48052;SDS011;33824;51.600;5.718;2023-06-22T06:54:28;12.57;;;7.88;;
48052;SDS011;33824;51.600;5.718;2023-06-22T06:56:53;14.75;;;8.32;;
48052;SDS011;33824;51.600;5.718;2023-06-22T06:59:19;12.35;;;8.10;;
48052;SDS011;33824;51.600;5.718;2023-06-22T07:01:44;12.95;;;7.93;;
48052;SDS011;33824;51.600;5.718;2023-06-22T07:04:10;10.52;;;7.03;;
48052;SDS011;33824;51.600;5.718;2023-06-22T07:06:36;11.68;;;7.88;;
48052;SDS011;33824;51.600;5.718;2023-06-22T07:09:01;13.07;;;8.35;;
48052;SDS011;33824;51.600;5.718;2023-06-22T07:11:28;12.60;;;8.10;;
48052;SDS011;33824;51.600;5.718;2023-06-22T07:13:54;11.75;;;7.68;;
48052;SDS011;33824;51.600;5.718;2023-06-22T07:16:19;12.05;;;7.30;;
48052;SDS011;33824;51.600;5.718;2023-06-22T07:18:45;13.65;;;8.45;;
48052;SDS011;33824;51.600;5.718;2023-06-22T07:21:11;11.98;;;7.57;;
48052;SDS011;33824;51.600;5.718;2023-06-22T07:23:36;14.10;;;8.43;;
48052;SDS011;33824;51.600;5.718;2023-06-22T07:26:02;13.70;;;8.10;;
48052;SDS011;33824;51.600;5.718;2023-06-22T07:28:27;15.35;;;7.93;;
48052;SDS011;33824;51.600;5.718;2023-06-22T07:30:56;11.85;;;8.07;;
48052;SDS011;33824;51.600;5.718;2023-06-22T07:33:22;18.25;;;8.30;;
48052;SDS011;33824;51.600;5.718;2023-06-22T07:35:48;12.43;;;7.50;;
48052;SDS011;33824;51.600;5.718;2023-06-22T07:38:13;11.18;;;7.53;;
48052;SDS011;33824;51.600;5.718;2023-06-22T07:40:40;12.73;;;7.72;;
48052;SDS011;33824;51.600;5.718;2023-06-22T07:43:07;12.25;;;7.30;;
48052;SDS011;33824;51.600;5.718;2023-06-22T07:45:32;11.75;;;7.35;;
48052;SDS011;33824;51.600;5.718;2023-06-22T07:48:00;10.63;;;7.65;;
48052;SDS011;33824;51.600;5.718;2023-06-22T07:50:26;13.95;;;7.35;;
48052;SDS011;33824;51.600;5.718;2023-06-22T07:52:51;12.27;;;7.60;;
48052;SDS011;33824;51.600;5.718;2023-06-22T07:55:18;12.95;;;8.05;;
48052;SDS011;33824;51.600;5.718;2023-06-22T07:57:44;10.88;;;7.25;;
48052;SDS011;33824;51.600;5.718;2023-06-22T08:00:10;10.48;;;7.35;;
48052;SDS011;33824;51.600;5.718;2023-06-22T08:02:40;12.20;;;8.07;;
48052;SDS011;33824;51.600;5.718;2023-06-22T08:05:07;16.23;;;8.25;;
48052;SDS011;33824;51.600;5.718;2023-06-22T08:07:34;13.40;;;7.85;;
48052;SDS011;33824;51.600;5.718;2023-06-22T08:10:02;14.02;;;8.13;;
48052;SDS011;33824;51.600;5.718;2023-06-22T08:12:28;13.43;;;7.82;;
48052;SDS011;33824;51.600;5.718;2023-06-22T08:14:54;10.60;;;6.80;;
48052;SDS011;33824;51.600;5.718;2023-06-22T08:17:19;10.45;;;7.07;;
48052;SDS011;33824;51.600;5.718;2023-06-22T08:19:45;13.77;;;7.68;;
48052;SDS011;33824;51.600;5.718;2023-06-22T08:22:10;12.25;;;7.65;;
48052;SDS011;33824;51.600;5.718;2023-06-22T08:24:36;11.48;;;7.70;;
48052;SDS011;33824;51.600;5.718;2023-06-22T08:27:02;11.75;;;7.10;;
48052;SDS011;33824;51.600;5.718;2023-06-22T08:29:28;10.98;;;7.43;;
48052;SDS011;33824;51.600;5.718;2023-06-22T08:31:53;12.85;;;7.45;;
48052;SDS011;33824;51.600;5.718;2023-06-22T08:34:19;11.15;;;7.32;;
48052;SDS011;33824;51.600;5.718;2023-06-22T08:36:48;13.98;;;8.55;;
48052;SDS011;33824;51.600;5.718;2023-06-22T08:39:17;13.50;;;6.45;;
48052;SDS011;33824;51.600;5.718;2023-06-22T08:41:43;14.88;;;6.38;;
48052;SDS011;33824;51.600;5.718;2023-06-22T08:44:10;12.25;;;7.13;;
48052;SDS011;33824;51.600;5.718;2023-06-22T08:46:35;12.60;;;8.25;;
48052;SDS011;33824;51.600;5.718;2023-06-22T08:49:02;13.93;;;7.95;;
48052;SDS011;33824;51.600;5.718;2023-06-22T08:51:27;14.02;;;7.75;;
48052;SDS011;33824;51.600;5.718;2023-06-22T08:53:57;10.57;;;7.57;;
48052;SDS011;33824;51.600;5.718;2023-06-22T08:56:22;11.70;;;7.75;;
48052;SDS011;33824;51.600;5.718;2023-06-22T08:58:48;12.00;;;7.93;;
48052;SDS011;33824;51.600;5.718;2023-06-22T09:01:13;12.57;;;7.55;;
48052;SDS011;33824;51.600;5.718;2023-06-22T09:03:41;11.60;;;7.18;;
48052;SDS011;33824;51.600;5.718;2023-06-22T09:06:06;10.18;;;7.20;;
48052;SDS011;33824;51.600;5.718;2023-06-22T09:08:35;11.52;;;7.35;;
48052;SDS011;33824;51.600;5.718;2023-06-22T09:11:01;13.23;;;7.82;;
48052;SDS011;33824;51.600;5.718;2023-06-22T09:13:27;13.23;;;8.32;;
48052;SDS011;33824;51.600;5.718;2023-06-22T09:15:55;10.50;;;6.57;;
48052;SDS011;33824;51.600;5.718;2023-06-22T09:18:20;11.32;;;7.15;;
48052;SDS011;33824;51.600;5.718;2023-06-22T09:20:46;12.88;;;7.50;;
48052;SDS011;33824;51.600;5.718;2023-06-22T09:23:12;10.60;;;7.30;;
48052;SDS011;33824;51.600;5.718;2023-06-22T09:25:37;13.18;;;7.88;;
48052;SDS011;33824;51.600;5.718;2023-06-22T09:28:03;12.68;;;7.38;;
48052;SDS011;33824;51.600;5.718;2023-06-22T09:30:28;13.50;;;7.43;;
48052;SDS011;33824;51.600;5.718;2023-06-22T09:32:54;12.38;;;7.50;;
48052;SDS011;33824;51.600;5.718;2023-06-22T09:35:20;11.25;;;7.38;;
48052;SDS011;33824;51.600;5.718;2023-06-22T09:37:45;9.90;;;7.05;;
48052;SDS011;33824;51.600;5.718;2023-06-22T09:40:11;14.05;;;7.68;;
48052;SDS011;33824;51.600;5.718;2023-06-22T09:42:38;11.65;;;7.45;;
48052;SDS011;33824;51.600;5.718;2023-06-22T09:45:04;11.48;;;7.68;;
48052;SDS011;33824;51.600;5.718;2023-06-22T09:47:31;10.48;;;6.70;;
48052;SDS011;33824;51.600;5.718;2023-06-22T09:49:56;13.40;;;7.90;;
48052;SDS011;33824;51.600;5.718;2023-06-22T09:52:24;15.80;;;7.35;;
48052;SDS011;33824;51.600;5.718;2023-06-22T09:54:50;16.75;;;7.68;;
48052;SDS011;33824;51.600;5.718;2023-06-22T09:57:15;11.40;;;6.68;;
48052;SDS011;33824;51.600;5.718;2023-06-22T09:59:41;10.43;;;7.28;;
48052;SDS011;33824;51.600;5.718;2023-06-22T10:02:07;12.70;;;7.38;;
48052;SDS011;33824;51.600;5.718;2023-06-22T10:04:33;10.82;;;6.70;;
48052;SDS011;33824;51.600;5.718;2023-06-22T10:07:00;13.45;;;7.32;;
48052;SDS011;33824;51.600;5.718;2023-06-22T10:09:26;12.60;;;6.72;;
48052;SDS011;33824;51.600;5.718;2023-06-22T10:11:52;9.02;;;6.53;;
48052;SDS011;33824;51.600;5.718;2023-06-22T10:14:18;10.73;;;6.88;;
48052;SDS011;33824;51.600;5.718;2023-06-22T10:16:43;10.35;;;6.45;;
48052;SDS011;33824;51.600;5.718;2023-06-22T10:19:09;10.77;;;7.15;;
48052;SDS011;33824;51.600;5.718;2023-06-22T10:21:35;10.38;;;6.82;;
48052;SDS011;33824;51.600;5.718;2023-06-22T10:24:00;11.35;;;6.82;;
48052;SDS011;33824;51.600;5.718;2023-06-22T10:26:32;9.93;;;6.32;;
48052;SDS011;33824;51.600;5.718;2023-06-22T10:28:58;11.27;;;6.95;;
48052;SDS011;33824;51.600;5.718;2023-06-22T10:31:24;10.13;;;6.35;;
48052;SDS011;33824;51.600;5.718;2023-06-22T10:33:50;10.55;;;6.68;;
48052;SDS011;33824;51.600;5.718;2023-06-22T10:36:16;10.15;;;6.95;;
48052;SDS011;33824;51.600;5.718;2023-06-22T10:38:41;9.27;;;6.10;;
48052;SDS011;33824;51.600;5.718;2023-06-22T10:41:07;12.95;;;6.75;;
48052;SDS011;33824;51.600;5.718;2023-06-22T10:43:32;9.02;;;6.28;;
48052;SDS011;33824;51.600;5.718;2023-06-22T10:45:58;10.52;;;7.03;;
48052;SDS011;33824;51.600;5.718;2023-06-22T10:48:23;11.57;;;6.75;;
48052;SDS011;33824;51.600;5.718;2023-06-22T10:50:49;13.63;;;6.60;;
48052;SDS011;33824;51.600;5.718;2023-06-22T10:53:14;14.23;;;7.07;;
48052;SDS011;33824;51.600;5.718;2023-06-22T10:55:40;9.77;;;6.20;;
48052;SDS011;33824;51.600;5.718;2023-06-22T10:58:05;10.23;;;6.65;;
48052;SDS011;33824;51.600;5.718;2023-06-22T11:00:31;9.35;;;6.22;;
48052;SDS011;33824;51.600;5.718;2023-06-22T11:02:57;10.55;;;6.25;;
48052;SDS011;33824;51.600;5.718;2023-06-22T11:05:23;11.38;;;6.60;;
48052;SDS011;33824;51.600;5.718;2023-06-22T11:07:49;10.80;;;6.65;;
48052;SDS011;33824;51.600;5.718;2023-06-22T11:10:15;16.60;;;6.38;;
48052;SDS011;33824;51.600;5.718;2023-06-22T11:12:40;13.77;;;6.70;;
48052;SDS011;33824;51.600;5.718;2023-06-22T11:15:08;9.82;;;7.45;;
48052;SDS011;33824;51.600;5.718;2023-06-22T11:17:34;13.45;;;6.88;;
48052;SDS011;33824;51.600;5.718;2023-06-22T11:20:00;10.68;;;6.95;;
48052;SDS011;33824;51.600;5.718;2023-06-22T11:22:26;13.52;;;7.68;;
48052;SDS011;33824;51.600;5.718;2023-06-22T11:24:52;11.32;;;6.95;;
48052;SDS011;33824;51.600;5.718;2023-06-22T11:27:17;10.52;;;6.90;;
48052;SDS011;33824;51.600;5.718;2023-06-22T11:29:43;13.10;;;7.72;;
48052;SDS011;33824;51.600;5.718;2023-06-22T11:32:08;11.73;;;6.85;;
48052;SDS011;33824;51.600;5.718;2023-06-22T11:34:34;13.82;;;7.13;;
48052;SDS011;33824;51.600;5.718;2023-06-22T11:37:00;12.15;;;7.35;;
48052;SDS011;33824;51.600;5.718;2023-06-22T11:39:26;9.98;;;6.57;;
48052;SDS011;33824;51.600;5.718;2023-06-22T11:41:51;11.38;;;6.90;;
48052;SDS011;33824;51.600;5.718;2023-06-22T11:44:17;9.88;;;6.60;;
48052;SDS011;33824;51.600;5.718;2023-06-22T11:46:42;13.05;;;7.30;;
48052;SDS011;33824;51.600;5.718;2023-06-22T11:49:08;10.35;;;6.38;;
48052;SDS011;33824;51.600;5.718;2023-06-22T11:51:33;9.85;;;6.82;;
48052;SDS011;33824;51.600;5.718;2023-06-22T11:53:59;13.23;;;7.30;;
48052;SDS011;33824;51.600;5.718;2023-06-22T11:56:25;12.88;;;7.78;;
48052;SDS011;33824;51.600;5.718;2023-06-22T11:58:51;9.68;;;6.68;;
48052;SDS011;33824;51.600;5.718;2023-06-22T12:01:16;12.50;;;7.72;;
48052;SDS011;33824;51.600;5.718;2023-06-22T12:03:42;10.38;;;7.38;;
48052;SDS011;33824;51.600;5.718;2023-06-22T12:06:10;11.13;;;8.18;;
48052;SDS011;33824;51.600;5.718;2023-06-22T12:08:37;13.00;;;8.13;;
48052;SDS011;33824;51.600;5.718;2023-06-22T12:11:02;14.23;;;8.07;;
48052;SDS011;33824;51.600;5.718;2023-06-22T12:13:31;11.88;;;8.13;;
48052;SDS011;33824;51.600;5.718;2023-06-22T12:15:56;15.52;;;7.65;;
48052;SDS011;33824;51.600;5.718;2023-06-22T12:18:22;12.98;;;8.63;;
48052;SDS011;33824;51.600;5.718;2023-06-22T12:20:48;12.27;;;8.30;;
48052;SDS011;33824;51.600;5.718;2023-06-22T12:23:14;15.07;;;9.13;;
48052;SDS011;33824;51.600;5.718;2023-06-22T12:25:40;13.02;;;8.25;;
48052;SDS011;33824;51.600;5.718;2023-06-22T12:28:05;14.50;;;8.50;;
48052;SDS011;33824;51.600;5.718;2023-06-22T12:30:32;15.02;;;8.10;;
48052;SDS011;33824;51.600;5.718;2023-06-22T12:32:58;12.05;;;7.43;;
48052;SDS011;33824;51.600;5.718;2023-06-22T12:35:24;11.50;;;7.45;;
48052;SDS011;33824;51.600;5.718;2023-06-22T12:37:50;12.10;;;7.30;;
48052;SDS011;33824;51.600;5.718;2023-06-22T12:40:15;13.68;;;7.85;;
48052;SDS011;33824;51.600;5.718;2023-06-22T12:42:41;11.38;;;6.80;;
48052;SDS011;33824;51.600;5.718;2023-06-22T12:45:07;11.75;;;7.00;;
48052;SDS011;33824;51.600;5.718;2023-06-22T12:47:34;11.60;;;7.53;;
48052;SDS011;33824;51.600;5.718;2023-06-22T12:49:59;11.10;;;7.35;;
48052;SDS011;33824;51.600;5.718;2023-06-22T12:52:25;12.80;;;8.23;;
48052;SDS011;33824;51.600;5.718;2023-06-22T12:54:50;11.98;;;7.88;;
48052;SDS011;33824;51.600;5.718;2023-06-22T12:57:17;16.02;;;6.72;;
48052;SDS011;33824;51.600;5.718;2023-06-22T12:59:44;11.90;;;8.02;;
48052;SDS011;33824;51.600;5.718;2023-06-22T13:02:10;16.08;;;7.32;;
48052;SDS011;33824;51.600;5.718;2023-06-22T13:04:36;10.57;;;6.90;;
48052;SDS011;33824;51.600;5.718;2023-06-22T13:07:01;10.20;;;7.20;;
48052;SDS011;33824;51.600;5.718;2023-06-22T13:09:27;12.60;;;6.75;;
48052;SDS011;33824;51.600;5.718;2023-06-22T13:11:53;12.65;;;6.63;;
48052;SDS011;33824;51.600;5.718;2023-06-22T13:14:18;11.05;;;7.22;;
48052;SDS011;33824;51.600;5.718;2023-06-22T13:16:44;10.55;;;6.95;;
48052;SDS011;33824;51.600;5.718;2023-06-22T13:19:10;11.57;;;6.60;;
48052;SDS011;33824;51.600;5.718;2023-06-22T13:21:36;10.27;;;6.63;;
48052;SDS011;33824;51.600;5.718;2023-06-22T13:24:03;11.68;;;6.35;;
48052;SDS011;33824;51.600;5.718;2023-06-22T13:26:31;8.98;;;6.00;;
48052;SDS011;33824;51.600;5.718;2023-06-22T13:28:57;9.43;;;5.80;;
48052;SDS011;33824;51.600;5.718;2023-06-22T13:31:23;9.25;;;6.35;;
48052;SDS011;33824;51.600;5.718;2023-06-22T13:33:48;8.55;;;6.32;;
48052;SDS011;33824;51.600;5.718;2023-06-22T13:36:14;12.70;;;7.05;;
48052;SDS011;33824;51.600;5.718;2023-06-22T13:38:40;8.57;;;5.85;;
48052;SDS011;33824;51.600;5.718;2023-06-22T13:41:05;8.00;;;5.43;;
48052;SDS011;33824;51.600;5.718;2023-06-22T13:43:31;8.93;;;5.40;;
48052;SDS011;33824;51.600;5.718;2023-06-22T13:45:57;8.35;;;5.57;;
48052;SDS011;33824;51.600;5.718;2023-06-22T13:48:22;8.18;;;5.97;;
48052;SDS011;33824;51.600;5.718;2023-06-22T13:50:51;7.95;;;5.70;;
48052;SDS011;33824;51.600;5.718;2023-06-22T13:53:17;8.93;;;5.85;;
48052;SDS011;33824;51.600;5.718;2023-06-22T13:55:43;9.73;;;5.88;;
48052;SDS011;33824;51.600;5.718;2023-06-22T13:58:08;9.57;;;6.47;;
48052;SDS011;33824;51.600;5.718;2023-06-22T14:00:34;7.68;;;5.07;;
48052;SDS011;33824;51.600;5.718;2023-06-22T14:02:59;8.55;;;6.03;;
48052;SDS011;33824;51.600;5.718;2023-06-22T14:05:26;9.23;;;5.95;;
48052;SDS011;33824;51.600;5.718;2023-06-22T14:07:51;8.25;;;5.50;;
48052;SDS011;33824;51.600;5.718;2023-06-22T14:10:17;8.63;;;6.00;;
48052;SDS011;33824;51.600;5.718;2023-06-22T14:12:42;11.73;;;5.97;;
48052;SDS011;33824;51.600;5.718;2023-06-22T14:15:08;8.18;;;5.35;;
48052;SDS011;33824;51.600;5.718;2023-06-22T14:17:34;10.30;;;6.40;;
48052;SDS011;33824;51.600;5.718;2023-06-22T14:19:59;9.70;;;6.20;;
48052;SDS011;33824;51.600;5.718;2023-06-22T14:22:25;8.57;;;5.88;;
48052;SDS011;33824;51.600;5.718;2023-06-22T14:24:52;8.85;;;5.63;;
48052;SDS011;33824;51.600;5.718;2023-06-22T14:27:17;8.77;;;5.20;;
48052;SDS011;33824;51.600;5.718;2023-06-22T14:29:43;8.35;;;6.05;;
48052;SDS011;33824;51.600;5.718;2023-06-22T14:32:09;10.43;;;6.07;;
48052;SDS011;33824;51.600;5.718;2023-06-22T14:34:35;10.15;;;5.70;;
48052;SDS011;33824;51.600;5.718;2023-06-22T14:37:04;9.30;;;5.80;;
48052;SDS011;33824;51.600;5.718;2023-06-22T14:39:31;9.88;;;6.00;;